Johannesburg, MI

4:18 AM EST on February 06, 2016 (GMT -0500)
Lake Louise | | Change Station
CLOSE
Current Station
Personal Weather Station
Location: Johannesburg, MI
Elevation: 1358 ft
Nearby Weather Stations

Elev 1358 ft 44.98 °N, 84.49 °W | Updated 9 minutes ago

Overcast
Overcast
18.7 °F
Feels Like 19 °F
N
1.7
Wind Variable Wind from WSW

Today
High -- | Low -- °F
--% Chance of Precip.
Yesterday
High -- | Low -- °F
Precip. -- in
Pressure 30.18 in
Visibility 10.0 miles
Clouds Overcast 9000 ft
Windchill 19 °F
Dew Point 18 °F
Humidity 98%
Rainfall 0.00 in
Snow Depth Not available.
7:51 AM 5:52 PM
Waning Crescent, 6% visible
METAR KGLR 060853Z AUTO 23010KT 10SM OVC090 M06/M09 A3011 RMK AO2 SLP218 T10611089 56013
Pressure 30.18 in
Visibility 10.0 miles
Clouds Overcast 9000 ft
Windchill 19 °F
Dew Point 18 °F
Humidity 98%
Rainfall 0.00 in
Snow Depth Not available.
7:51 AM 5:52 PM
Waning Crescent, 6% visible
METAR KGLR 060853Z AUTO 23010KT 10SM OVC090 M06/M09 A3011 RMK AO2 SLP218 T10611089 56013

10-Day Weather Forecast

Almanac

Astronomy

Feb. 06, 2016 Rise Set
Actual Time
Civil Twilight
Nautical Twilight
Astronomical Twilight
Moon
Length of Visible Light
Length of Day
Tomorrow will be .
, % of the Moon is Illuminated

Today's Extremes

State Highs State Lows

Community

WunderPhotos

Upload Photos

1,890,933 photos uploaded!

WunderBlog® & News

Nearby

Air Quality

  Air Quality AQ Index Pollutant
Not available.

Snow Depth

Station Depth Elevation

Earthquake Activity

City Distance Mag. Time & Date
Minimum magnitude displayed is 2.5.

Coastal Water Temperatures

Place Temperature

Stations

Nearby Weather Stations

Station Location Temp. Windchill Dew Point Humidity Wind Precip. Elev Updated Type
                   

Watches & Warnings

There are currently no watches in effect.